Terminal Aerodrome Forecast
Issued by NWS

Home | Current Version | Previous Version | Text Only | Print | Product List | Glossary On
Versions: 1 2 3 4 5 6 7 8 9 10 11 12 13 14 15 16 17 18 19
000
FTUS41 KCLE 010600 AAA
TAFFDY
TAF AMD
KFDY 010626Z 0106/0206 23005KT 1SM -SN SCT008 OVC018
     FM010700 22005KT 1 1/2SM -SN BR OVC008
     FM011500 08012KT 1/2SM SN OVC005
     FM012200 08015G25KT 1/2SM SN BLSN OVC003
     FM020500 04018G28KT 1 1/2SM -SN BLSN OVC005=

USA.gov is the U.S. government's official web portal to all federal, state and local government web resources and services.